createdAt,value
2022-08-12T00:00:36.114Z,1017.47
2022-08-12T00:02:02.783Z,1017.45
2022-08-12T00:02:37.121Z,1017.49
2022-08-12T00:03:36.123Z,1017.50
2022-08-12T00:04:36.075Z,1017.52
2022-08-12T00:05:36.041Z,1017.53
2022-08-12T00:06:36.054Z,1017.53
2022-08-12T00:07:36.046Z,1017.55
2022-08-12T00:08:36.943Z,1017.53
2022-08-12T00:09:36.027Z,1017.52
2022-08-12T00:10:35.999Z,1017.55
2022-08-12T00:11:35.995Z,1017.55
2022-08-12T00:12:35.978Z,1017.54
2022-08-12T00:13:35.984Z,1017.53
2022-08-12T00:14:35.974Z,1017.55
2022-08-12T00:15:35.938Z,1017.56
2022-08-12T00:16:35.946Z,1017.56
2022-08-12T00:17:35.910Z,1017.53
2022-08-12T00:18:35.915Z,1017.58
2022-08-12T00:19:35.934Z,1017.51
2022-08-12T00:20:35.894Z,1017.54
2022-08-12T00:21:36.051Z,1017.52
2022-08-12T00:22:35.870Z,1017.52
2022-08-12T00:23:35.871Z,1017.51
2022-08-12T00:24:35.876Z,1017.52
2022-08-12T00:25:55.777Z,1017.52
2022-08-12T00:26:36.845Z,1017.49
2022-08-12T00:27:43.866Z,1017.52
2022-08-12T00:28:36.814Z,1017.52
2022-08-12T00:29:35.794Z,1017.53
2022-08-12T00:30:35.780Z,1017.54
2022-08-12T00:31:35.761Z,1017.56
2022-08-12T00:32:36.702Z,1017.56
2022-08-12T00:33:36.476Z,1017.53
2022-08-12T00:34:36.740Z,1017.56
2022-08-12T00:35:36.819Z,1017.57
2022-08-12T00:36:36.079Z,1017.56
2022-08-12T00:37:56.700Z,1017.54
2022-08-12T00:38:35.713Z,1017.55
2022-08-12T00:39:35.735Z,1017.52
2022-08-12T00:40:35.698Z,1017.57
2022-08-12T00:41:35.662Z,1017.59
2022-08-12T00:42:35.678Z,1017.59
2022-08-12T00:43:35.643Z,1017.53
2022-08-12T00:44:35.626Z,1017.53
2022-08-12T00:45:35.625Z,1017.56
2022-08-12T00:46:35.625Z,1017.59
2022-08-12T00:47:35.652Z,1017.63
2022-08-12T00:48:35.595Z,1017.65
2022-08-12T00:49:35.572Z,1017.68
2022-08-12T00:50:35.563Z,1017.64
2022-08-12T00:51:35.565Z,1017.59
2022-08-12T00:52:35.761Z,1017.63
2022-08-12T00:53:35.540Z,1017.58
2022-08-12T00:54:35.551Z,1017.60
2022-08-12T00:55:35.523Z,1017.62
2022-08-12T00:56:35.522Z,1017.56
2022-08-12T00:57:35.490Z,1017.60
2022-08-12T00:58:35.498Z,1017.54
2022-08-12T00:59:35.481Z,1017.53
2022-08-12T01:00:35.466Z,1017.54
2022-08-12T01:02:02.392Z,1017.55
2022-08-12T01:02:36.463Z,1017.56
2022-08-12T01:03:35.434Z,1017.56
2022-08-12T01:04:35.436Z,1017.51
2022-08-12T01:05:35.421Z,1017.55
2022-08-12T01:06:35.393Z,1017.52
2022-08-12T01:07:35.393Z,1017.49
2022-08-12T01:08:35.378Z,1017.51
2022-08-12T01:09:35.361Z,1017.48
2022-08-12T01:10:35.349Z,1017.47
2022-08-12T01:11:35.364Z,1017.45
2022-08-12T01:12:35.431Z,1017.47
2022-08-12T01:13:35.340Z,1017.46
2022-08-12T01:14:35.340Z,1017.48
2022-08-12T01:15:35.304Z,1017.50
2022-08-12T01:16:35.301Z,1017.53
2022-08-12T01:17:35.279Z,1017.54
2022-08-12T01:18:35.259Z,1017.56
2022-08-12T01:19:35.264Z,1017.54
2022-08-12T01:20:35.249Z,1017.53
2022-08-12T01:21:35.229Z,1017.53
2022-08-12T01:22:35.287Z,1017.53
2022-08-12T01:23:35.210Z,1017.52
2022-08-12T01:24:35.204Z,1017.54
2022-08-12T01:25:39.666Z,1017.59
2022-08-12T01:26:36.192Z,1017.60
2022-08-12T01:27:35.184Z,1017.60
2022-08-12T01:28:35.173Z,1017.56
2022-08-12T01:29:35.225Z,1017.51
2022-08-12T01:30:35.192Z,1017.52
2022-08-12T01:31:35.141Z,1017.52
2022-08-12T01:32:35.185Z,1017.51
2022-08-12T01:33:35.098Z,1017.52
2022-08-12T01:34:36.360Z,1017.57
2022-08-12T01:35:35.092Z,1017.59
2022-08-12T01:36:35.060Z,1017.58
2022-08-12T01:37:35.050Z,1017.56
2022-08-12T01:38:35.053Z,1017.55
2022-08-12T01:39:35.088Z,1017.57
2022-08-12T01:40:37.924Z,1017.58
2022-08-12T01:41:35.043Z,1017.59
2022-08-12T01:42:35.060Z,1017.61
2022-08-12T01:43:35.012Z,1017.60
2022-08-12T01:44:34.979Z,1017.60
2022-08-12T01:45:40.506Z,1017.60
2022-08-12T01:46:35.968Z,1017.59
2022-08-12T01:47:34.973Z,1017.60
2022-08-12T01:48:34.972Z,1017.65
2022-08-12T01:49:34.933Z,1017.65
2022-08-12T01:50:34.918Z,1017.64
2022-08-12T01:52:14.770Z,1017.62
2022-08-12T01:52:35.934Z,1017.63
2022-08-12T01:53:48.721Z,1017.63
2022-08-12T01:54:35.895Z,1017.62
2022-08-12T01:55:34.891Z,1017.64
2022-08-12T01:56:34.849Z,1017.64
2022-08-12T01:57:58.299Z,1017.62
2022-08-12T01:58:35.839Z,1017.60
2022-08-12T01:59:34.838Z,1017.60
2022-08-12T02:00:36.040Z,1017.60
2022-08-12T02:01:35.854Z,1017.57
2022-08-12T02:02:34.840Z,1017.56
2022-08-12T02:03:34.804Z,1017.58
2022-08-12T02:04:34.782Z,1017.54
2022-08-12T02:05:34.767Z,1017.55
2022-08-12T02:06:34.757Z,1017.58
2022-08-12T02:07:34.748Z,1017.56
2022-08-12T02:08:34.742Z,1017.51
2022-08-12T02:09:34.762Z,1017.53
2022-08-12T02:10:49.263Z,1017.49
2022-08-12T02:11:35.686Z,1017.52
2022-08-12T02:12:34.759Z,1017.51
2022-08-12T02:13:48.790Z,1017.51
2022-08-12T02:14:35.722Z,1017.51
2022-08-12T02:15:34.674Z,1017.53
2022-08-12T02:16:34.673Z,1017.52
2022-08-12T02:17:55.968Z,1017.50
2022-08-12T02:18:35.617Z,1017.51
2022-08-12T02:19:34.612Z,1017.52
2022-08-12T02:20:43.856Z,1017.53
2022-08-12T02:21:35.605Z,1017.47
2022-08-12T02:22:34.638Z,1017.44
2022-08-12T02:23:34.572Z,1017.46
2022-08-12T02:24:34.551Z,1017.44
2022-08-12T02:25:34.538Z,1017.52
2022-08-12T02:26:34.541Z,1017.52
2022-08-12T02:27:34.541Z,1017.51
2022-08-12T02:28:34.520Z,1017.50
2022-08-12T02:29:34.488Z,1017.50
2022-08-12T02:30:41.819Z,1017.48
2022-08-12T02:31:35.469Z,1017.49
2022-08-12T02:32:34.503Z,1017.47
2022-08-12T02:33:34.456Z,1017.49
2022-08-12T02:34:34.437Z,1017.51
2022-08-12T02:35:34.442Z,1017.52
2022-08-12T02:36:34.417Z,1017.56
2022-08-12T02:37:34.402Z,1017.55
2022-08-12T02:38:34.407Z,1017.49
2022-08-12T02:39:34.458Z,1017.47
2022-08-12T02:40:34.370Z,1017.51
2022-08-12T02:41:34.362Z,1017.53
2022-08-12T02:42:34.375Z,1017.53
2022-08-12T02:43:34.330Z,1017.50
2022-08-12T02:44:34.349Z,1017.47
2022-08-12T02:45:34.308Z,1017.44
2022-08-12T02:46:34.318Z,1017.44
2022-08-12T02:47:58.093Z,1017.46
2022-08-12T02:48:35.305Z,1017.46
2022-08-12T02:49:34.269Z,1017.48
2022-08-12T02:50:34.283Z,1017.42
2022-08-12T02:51:34.270Z,1017.43
2022-08-12T02:52:34.241Z,1017.42
2022-08-12T02:53:34.245Z,1017.39
2022-08-12T02:54:34.227Z,1017.40
2022-08-12T02:55:35.171Z,1017.41
2022-08-12T02:56:34.231Z,1017.42
2022-08-12T02:57:34.188Z,1017.39
2022-08-12T02:58:34.223Z,1017.39
2022-08-12T02:59:34.190Z,1017.39
2022-08-12T03:00:34.173Z,1017.38
2022-08-12T03:01:34.371Z,1017.34
2022-08-12T03:02:34.162Z,1017.34
2022-08-12T03:03:34.131Z,1017.39
2022-08-12T03:04:34.118Z,1017.38
2022-08-12T03:05:38.644Z,1017.41
2022-08-12T03:06:35.101Z,1017.37
2022-08-12T03:07:56.114Z,1017.43
2022-08-12T03:08:35.069Z,1017.42
2022-08-12T03:10:03.806Z,1017.42
2022-08-12T03:10:38.008Z,1017.46
2022-08-12T03:11:34.661Z,1017.48
2022-08-12T03:12:35.172Z,1017.49
2022-08-12T03:13:35.006Z,1017.45
2022-08-12T03:14:34.058Z,1017.47
2022-08-12T03:15:33.995Z,1017.45
2022-08-12T03:16:33.974Z,1017.47
2022-08-12T03:17:33.984Z,1017.47
2022-08-12T03:18:33.963Z,1017.46
2022-08-12T03:19:33.979Z,1017.45
2022-08-12T03:20:34.063Z,1017.46
2022-08-12T03:22:05.670Z,1017.44
2022-08-12T03:22:34.981Z,1017.46
2022-08-12T03:23:33.917Z,1017.47
2022-08-12T03:24:33.911Z,1017.48
2022-08-12T03:25:33.937Z,1017.45
2022-08-12T03:26:33.893Z,1017.46
2022-08-12T03:27:33.879Z,1017.42
2022-08-12T03:28:33.871Z,1017.46
2022-08-12T03:29:49.729Z,1017.48
2022-08-12T03:30:34.843Z,1017.49
2022-08-12T03:31:33.851Z,1017.46
2022-08-12T03:32:35.762Z,1017.50
2022-08-12T03:33:33.815Z,1017.50
2022-08-12T03:34:33.861Z,1017.54
2022-08-12T03:35:41.308Z,1017.49
2022-08-12T03:36:34.917Z,1017.51
2022-08-12T03:37:33.743Z,1017.54
2022-08-12T03:38:33.757Z,1017.53
2022-08-12T03:39:36.146Z,1017.56
2022-08-12T03:40:33.741Z,1017.49
2022-08-12T03:41:33.727Z,1017.53
2022-08-12T03:42:33.719Z,1017.54
2022-08-12T03:43:33.695Z,1017.57
2022-08-12T03:44:33.691Z,1017.56
2022-08-12T03:45:33.664Z,1017.57
2022-08-12T03:46:33.662Z,1017.55
2022-08-12T03:47:33.655Z,1017.55
2022-08-12T03:48:33.624Z,1017.56
2022-08-12T03:49:33.638Z,1017.59
2022-08-12T03:50:33.689Z,1017.54
2022-08-12T03:51:33.616Z,1017.55
2022-08-12T03:52:33.595Z,1017.55
2022-08-12T03:53:33.614Z,1017.56
2022-08-12T03:54:33.585Z,1017.53
2022-08-12T03:55:33.543Z,1017.55
2022-08-12T03:56:33.544Z,1017.55
2022-08-12T03:57:33.539Z,1017.55
2022-08-12T03:58:33.605Z,1017.54
2022-08-12T03:59:33.954Z,1017.52
2022-08-12T04:00:34.022Z,1017.54
2022-08-12T04:01:33.496Z,1017.55
2022-08-12T04:02:34.574Z,1017.54
2022-08-12T04:03:33.487Z,1017.54
2022-08-12T04:04:33.476Z,1017.53
2022-08-12T04:05:55.503Z,1017.56
2022-08-12T04:06:36.027Z,1017.57
2022-08-12T04:07:33.435Z,1017.62
2022-08-12T04:08:33.417Z,1017.62
2022-08-12T04:09:33.420Z,1017.62
2022-08-12T04:10:33.398Z,1017.61
2022-08-12T04:11:33.374Z,1017.62
2022-08-12T04:12:34.433Z,1017.62
2022-08-12T04:13:33.361Z,1017.62
2022-08-12T04:14:33.355Z,1017.62
2022-08-12T04:15:33.343Z,1017.64
2022-08-12T04:16:33.343Z,1017.68
2022-08-12T04:17:33.334Z,1017.65
2022-08-12T04:18:33.306Z,1017.66
2022-08-12T04:19:33.302Z,1017.68
2022-08-12T04:20:33.297Z,1017.67
2022-08-12T04:21:33.284Z,1017.67
2022-08-12T04:22:33.276Z,1017.67
2022-08-12T04:23:33.271Z,1017.67
2022-08-12T04:24:33.248Z,1017.69
2022-08-12T04:25:33.247Z,1017.67
2022-08-12T04:26:33.308Z,1017.67
2022-08-12T04:27:33.227Z,1017.70
2022-08-12T04:28:33.195Z,1017.69
2022-08-12T04:30:31.074Z,1017.69
2022-08-12T04:30:34.301Z,1017.69
2022-08-12T04:31:33.177Z,1017.68
2022-08-12T04:32:33.167Z,1017.70
2022-08-12T04:33:33.156Z,1017.68
2022-08-12T04:34:33.140Z,1017.67
2022-08-12T04:35:33.147Z,1017.68
2022-08-12T04:36:33.117Z,1017.71
2022-08-12T04:37:58.776Z,1017.69
2022-08-12T04:38:34.075Z,1017.68
2022-08-12T04:39:33.127Z,1017.71
2022-08-12T04:40:33.086Z,1017.67
2022-08-12T04:41:33.070Z,1017.67
2022-08-12T04:42:33.060Z,1017.69
2022-08-12T04:43:59.807Z,1017.69
2022-08-12T04:44:34.029Z,1017.67
2022-08-12T04:45:33.067Z,1017.70
2022-08-12T04:46:34.891Z,1017.68
2022-08-12T04:47:33.009Z,1017.69
2022-08-12T04:48:33.009Z,1017.68
2022-08-12T04:49:32.966Z,1017.68
2022-08-12T04:50:35.791Z,1017.65
2022-08-12T04:51:32.989Z,1017.68
2022-08-12T04:52:34.952Z,1017.69
2022-08-12T04:53:32.930Z,1017.68
2022-08-12T04:54:32.929Z,1017.69
2022-08-12T04:55:32.911Z,1017.66
2022-08-12T04:56:35.669Z,1017.65
2022-08-12T04:57:32.893Z,1017.68
2022-08-12T04:58:32.890Z,1017.66
2022-08-12T04:59:47.809Z,1017.68
2022-08-12T05:00:33.871Z,1017.67
2022-08-12T05:01:32.862Z,1017.65
2022-08-12T05:02:32.964Z,1017.68
2022-08-12T05:03:45.881Z,1017.68
2022-08-12T05:04:33.819Z,1017.70
2022-08-12T05:05:36.120Z,1017.71
2022-08-12T05:06:32.778Z,1017.69
2022-08-12T05:07:32.771Z,1017.69
2022-08-12T05:08:32.836Z,1017.71
2022-08-12T05:09:59.699Z,1017.70
2022-08-12T05:10:36.043Z,1017.68
2022-08-12T05:11:32.722Z,1017.65
2022-08-12T05:12:32.727Z,1017.68
2022-08-12T05:13:32.718Z,1017.64
2022-08-12T05:14:37.402Z,1017.62
2022-08-12T05:15:33.683Z,1017.65
2022-08-12T05:16:34.238Z,1017.61
2022-08-12T05:17:32.657Z,1017.64
2022-08-12T05:18:32.647Z,1017.64
2022-08-12T05:19:32.656Z,1017.63
2022-08-12T05:20:32.633Z,1017.63
2022-08-12T05:21:32.625Z,1017.67
2022-08-12T05:22:37.084Z,1017.66
2022-08-12T05:23:32.607Z,1017.67
2022-08-12T05:24:32.601Z,1017.64
2022-08-12T05:25:32.633Z,1017.65
2022-08-12T05:26:32.565Z,1017.68
2022-08-12T05:27:32.573Z,1017.67
2022-08-12T05:28:32.556Z,1017.66
2022-08-12T05:30:05.557Z,1017.66
2022-08-12T05:30:33.570Z,1017.66
2022-08-12T05:31:42.518Z,1017.64
2022-08-12T05:32:33.494Z,1017.65
2022-08-12T05:33:32.512Z,1017.63
2022-08-12T05:34:32.513Z,1017.64
2022-08-12T05:35:32.477Z,1017.62
2022-08-12T05:36:32.456Z,1017.64
2022-08-12T05:37:32.478Z,1017.65
2022-08-12T05:38:32.423Z,1017.65
2022-08-12T05:39:32.529Z,1017.66
2022-08-12T05:40:32.425Z,1017.67
2022-08-12T05:41:32.420Z,1017.65
2022-08-12T05:42:33.666Z,1017.69
2022-08-12T05:43:32.386Z,1017.69
2022-08-12T05:44:32.377Z,1017.68
2022-08-12T05:45:32.366Z,1017.72
2022-08-12T05:46:32.351Z,1017.71
2022-08-12T05:47:44.775Z,1017.71
2022-08-12T05:48:33.336Z,1017.75
2022-08-12T05:49:32.333Z,1017.71
2022-08-12T05:50:32.292Z,1017.74
2022-08-12T05:51:40.206Z,1017.73
2022-08-12T05:52:33.316Z,1017.71
2022-08-12T05:53:32.286Z,1017.73
2022-08-12T05:54:54.702Z,1017.75
2022-08-12T05:55:33.253Z,1017.75
2022-08-12T05:56:32.247Z,1017.82
2022-08-12T05:57:32.236Z,1017.79
2022-08-12T05:58:32.235Z,1017.80
2022-08-12T05:59:32.218Z,1017.79
2022-08-12T06:00:32.183Z,1017.80
2022-08-12T06:02:09.424Z,1017.83
2022-08-12T06:02:33.278Z,1017.83
2022-08-12T06:03:32.224Z,1017.80
2022-08-12T06:04:32.155Z,1017.82
2022-08-12T06:05:32.143Z,1017.83
2022-08-12T06:06:34.553Z,1017.80
2022-08-12T06:07:42.781Z,1017.79
2022-08-12T06:08:33.123Z,1017.82
2022-08-12T06:09:32.096Z,1017.83
2022-08-12T06:10:33.173Z,1017.86
2022-08-12T06:11:32.147Z,1017.85
2022-08-12T06:12:32.055Z,1017.85
2022-08-12T06:13:53.728Z,1017.87
2022-08-12T06:14:33.058Z,1017.88
2022-08-12T06:15:32.023Z,1017.85
2022-08-12T06:16:32.013Z,1017.88
2022-08-12T06:17:32.016Z,1017.85
2022-08-12T06:18:31.983Z,1017.89
2022-08-12T06:20:25.989Z,1017.92
2022-08-12T06:20:34.325Z,1017.90
2022-08-12T06:21:31.953Z,1017.88
2022-08-12T06:22:31.972Z,1017.91
2022-08-12T06:23:31.947Z,1017.90
2022-08-12T06:24:31.987Z,1017.91
2022-08-12T06:25:31.925Z,1017.93
2022-08-12T06:26:31.905Z,1017.95
2022-08-12T06:27:31.906Z,1017.92
2022-08-12T06:28:31.894Z,1017.92
2022-08-12T06:30:08.973Z,1017.97
2022-08-12T06:30:37.884Z,1017.94
2022-08-12T06:31:32.870Z,1017.90
2022-08-12T06:32:31.837Z,1017.89
2022-08-12T06:33:55.503Z,1017.86
2022-08-12T06:35:25.701Z,1017.87
2022-08-12T06:35:48.492Z,1017.89
2022-08-12T06:36:33.491Z,1017.88
2022-08-12T06:37:31.814Z,1017.87
2022-08-12T06:38:31.786Z,1017.88
2022-08-12T06:39:31.817Z,1017.85
2022-08-12T06:40:31.772Z,1017.85
2022-08-12T06:41:31.786Z,1017.84
2022-08-12T06:42:33.485Z,1017.84
2022-08-12T06:44:06.951Z,1017.83
2022-08-12T06:44:32.886Z,1017.83
2022-08-12T06:45:45.502Z,1017.84
2022-08-12T06:46:32.726Z,1017.82
2022-08-12T06:47:31.687Z,1017.84
2022-08-12T06:48:31.686Z,1017.86
2022-08-12T06:49:31.663Z,1017.82
2022-08-12T06:50:31.688Z,1017.85
2022-08-12T06:51:31.670Z,1017.86
2022-08-12T06:52:31.693Z,1017.87
2022-08-12T06:53:31.627Z,1017.86
2022-08-12T06:54:32.444Z,1017.85
2022-08-12T06:55:31.606Z,1017.83
2022-08-12T06:57:00.209Z,1017.84
2022-08-12T06:58:05.396Z,1017.84
2022-08-12T06:58:32.604Z,1017.84
2022-08-12T06:59:31.547Z,1017.82
2022-08-12T07:00:32.584Z,1017.85
2022-08-12T07:01:31.623Z,1017.80
2022-08-12T07:02:36.335Z,1017.82
2022-08-12T07:03:32.525Z,1017.83
2022-08-12T07:04:39.458Z,1017.84
2022-08-12T07:05:32.519Z,1017.80
2022-08-12T07:06:31.493Z,1017.79
2022-08-12T07:07:31.481Z,1017.81
2022-08-12T07:08:31.454Z,1017.80
2022-08-12T07:10:06.908Z,1017.79
2022-08-12T07:10:32.441Z,1017.78
2022-08-12T07:11:31.422Z,1017.80
2022-08-12T07:12:31.454Z,1017.81
2022-08-12T07:13:31.446Z,1017.82
2022-08-12T07:14:31.544Z,1017.81
2022-08-12T07:15:31.388Z,1017.77
2022-08-12T07:16:31.405Z,1017.75
2022-08-12T07:17:31.389Z,1017.82
2022-08-12T07:18:31.358Z,1017.81
2022-08-12T07:19:40.398Z,1017.82
2022-08-12T07:20:51.585Z,1017.83
2022-08-12T07:22:00.264Z,1017.84
2022-08-12T07:22:32.318Z,1017.84
2022-08-12T07:23:31.292Z,1017.86
2022-08-12T07:24:31.282Z,1017.88
2022-08-12T07:25:37.173Z,1017.84
2022-08-12T07:26:32.276Z,1017.89
2022-08-12T07:27:32.062Z,1017.89
2022-08-12T07:28:31.257Z,1017.87
2022-08-12T07:30:00.120Z,1017.87
2022-08-12T07:30:32.238Z,1017.88
2022-08-12T07:31:31.219Z,1017.91
2022-08-12T07:32:31.272Z,1017.90
2022-08-12T07:33:31.195Z,1017.91
2022-08-12T07:34:31.192Z,1017.92
2022-08-12T07:35:31.176Z,1017.89
2022-08-12T07:36:31.185Z,1017.94
2022-08-12T07:37:31.164Z,1017.92
2022-08-12T07:38:31.135Z,1017.94
2022-08-12T07:39:31.214Z,1017.96
2022-08-12T07:40:31.107Z,1017.95
2022-08-12T07:41:31.092Z,1017.98
2022-08-12T07:42:31.111Z,1017.97
2022-08-12T07:43:31.095Z,1017.97
2022-08-12T07:44:31.079Z,1017.98
2022-08-12T07:45:31.080Z,1018.00
2022-08-12T07:46:31.069Z,1018.01
2022-08-12T07:47:31.053Z,1018.03
2022-08-12T07:48:31.026Z,1018.00
2022-08-12T07:49:31.034Z,1018.01
2022-08-12T07:50:31.026Z,1018.00
2022-08-12T07:51:30.995Z,1017.98
2022-08-12T07:52:31.030Z,1018.02
2022-08-12T07:53:30.975Z,1017.99
2022-08-12T07:54:30.966Z,1017.98
2022-08-12T07:55:30.943Z,1017.94
2022-08-12T07:56:30.964Z,1017.95
2022-08-12T07:57:30.923Z,1017.94
2022-08-12T07:58:30.926Z,1017.92
2022-08-12T07:59:30.940Z,1017.91
2022-08-12T08:00:30.882Z,1017.98
2022-08-12T08:01:30.948Z,1017.95
2022-08-12T08:02:30.952Z,1017.93
2022-08-12T08:03:30.881Z,1017.92
2022-08-12T08:04:30.897Z,1017.92
2022-08-12T08:05:30.843Z,1017.92
2022-08-12T08:06:30.834Z,1017.92
2022-08-12T08:07:31.193Z,1017.90
2022-08-12T08:08:30.853Z,1017.89
2022-08-12T08:09:30.825Z,1017.84
2022-08-12T08:10:30.792Z,1017.88
2022-08-12T08:11:30.791Z,1017.86
2022-08-12T08:12:30.834Z,1017.86
2022-08-12T08:13:30.753Z,1017.78
2022-08-12T08:14:30.763Z,1017.87
2022-08-12T08:15:58.906Z,1017.78
2022-08-12T08:16:31.721Z,1017.76
2022-08-12T08:17:30.716Z,1017.77
2022-08-12T08:18:30.767Z,1017.77
2022-08-12T08:19:30.723Z,1017.74
2022-08-12T08:20:30.682Z,1017.71
2022-08-12T08:21:30.685Z,1017.71
2022-08-12T08:22:40.770Z,1017.72
2022-08-12T08:23:35.289Z,1017.73
2022-08-12T08:24:31.634Z,1017.75
2022-08-12T08:25:35.683Z,1017.74
2022-08-12T08:26:31.622Z,1017.79
2022-08-12T08:27:30.617Z,1017.77
2022-08-12T08:28:30.619Z,1017.80
2022-08-12T08:29:30.592Z,1017.77
2022-08-12T08:30:30.573Z,1017.75
2022-08-12T08:31:30.566Z,1017.75
2022-08-12T08:32:30.557Z,1017.76
2022-08-12T08:34:04.938Z,1017.75
2022-08-12T08:35:46.560Z,1017.76
2022-08-12T08:36:31.505Z,1017.75
2022-08-12T08:37:33.569Z,1017.77
2022-08-12T08:38:32.804Z,1017.78
2022-08-12T08:39:30.509Z,1017.75
2022-08-12T08:40:30.484Z,1017.75
2022-08-12T08:42:15.966Z,1017.74
2022-08-12T08:42:31.501Z,1017.73
2022-08-12T08:43:30.437Z,1017.73
2022-08-12T08:44:31.446Z,1017.71
2022-08-12T08:45:30.401Z,1017.72
2022-08-12T08:46:30.441Z,1017.72
2022-08-12T08:47:30.393Z,1017.71
2022-08-12T08:48:30.406Z,1017.72
2022-08-12T08:49:30.375Z,1017.67
2022-08-12T08:50:30.354Z,1017.69
2022-08-12T08:51:30.346Z,1017.70
2022-08-12T08:52:40.301Z,1017.65
2022-08-12T08:53:31.336Z,1017.64
2022-08-12T08:54:31.041Z,1017.66
2022-08-12T08:55:48.222Z,1017.67
2022-08-12T08:56:31.323Z,1017.66
2022-08-12T08:57:43.918Z,1017.68
2022-08-12T08:58:31.406Z,1017.66
2022-08-12T08:59:30.277Z,1017.62
2022-08-12T09:00:30.255Z,1017.62
2022-08-12T09:01:37.358Z,1017.61
2022-08-12T09:02:31.250Z,1017.59
2022-08-12T09:05:09.309Z,1017.55
2022-08-12T09:05:12.475Z,1017.57
2022-08-12T09:06:01.540Z,1017.57
2022-08-12T09:07:51.906Z,1017.60
2022-08-12T09:08:31.172Z,1017.63
2022-08-12T09:10:01.630Z,1017.58
2022-08-12T09:10:37.180Z,1017.56
2022-08-12T09:12:06.517Z,1017.58
2022-08-12T09:12:31.147Z,1017.59
2022-08-12T09:14:11.022Z,1017.62
2022-08-12T09:14:31.098Z,1017.63
2022-08-12T09:15:35.071Z,1017.61
2022-08-12T09:16:31.117Z,1017.62
2022-08-12T09:17:41.999Z,1017.61
2022-08-12T09:18:33.573Z,1017.60
2022-08-12T09:19:30.039Z,1017.61
2022-08-12T09:20:30.052Z,1017.58
2022-08-12T09:21:30.035Z,1017.52
2022-08-12T09:22:31.050Z,1017.48
2022-08-12T09:23:58.558Z,1017.42
2022-08-12T09:24:30.993Z,1017.51
2022-08-12T09:25:33.285Z,1017.55
2022-08-12T09:26:29.984Z,1017.58
2022-08-12T09:28:18.086Z,1017.56
2022-08-12T09:28:31.669Z,1017.55
2022-08-12T09:30:08.733Z,1017.52
2022-08-12T09:30:41.879Z,1017.51
2022-08-12T09:32:03.245Z,1017.51
2022-08-12T09:33:01.540Z,1017.48
2022-08-12T09:34:28.857Z,1017.48
2022-08-12T09:34:33.630Z,1017.50
2022-08-12T09:35:30.881Z,1017.47
2022-08-12T09:36:31.466Z,1017.53
2022-08-12T09:37:57.823Z,1017.41
2022-08-12T09:38:32.110Z,1017.43
2022-08-12T09:40:01.570Z,1017.46
2022-08-12T09:41:01.567Z,1017.43
2022-08-12T09:42:33.482Z,1017.43
2022-08-12T09:42:41.115Z,1017.43
2022-08-12T09:43:30.828Z,1017.38
2022-08-12T09:44:38.498Z,1017.33
2022-08-12T09:46:19.616Z,1017.34
2022-08-12T09:46:30.809Z,1017.35
2022-08-12T09:47:29.894Z,1017.36
2022-08-12T09:48:35.220Z,1017.34
2022-08-12T09:49:30.900Z,1017.35
2022-08-12T09:50:29.732Z,1017.41
2022-08-12T09:51:37.586Z,1017.46
2022-08-12T09:52:42.451Z,1017.40
2022-08-12T09:53:38.464Z,1017.40
2022-08-12T09:54:33.209Z,1017.38
2022-08-12T09:56:05.657Z,1017.34
2022-08-12T09:56:59.026Z,1017.32
2022-08-12T09:58:50.927Z,1017.28
2022-08-12T09:58:58.062Z,1017.33
2022-08-12T10:00:17.668Z,1017.31
2022-08-12T10:00:43.163Z,1017.31
2022-08-12T10:01:35.215Z,1017.32
2022-08-12T10:02:45.070Z,1017.27
2022-08-12T10:03:32.476Z,1017.14
2022-08-12T10:04:30.238Z,1017.15
2022-08-12T10:06:26.368Z,1017.08
2022-08-12T10:06:32.411Z,1017.05
2022-08-12T10:07:39.431Z,1017.05
2022-08-12T10:08:30.542Z,1017.03
2022-08-12T10:09:58.510Z,1017.05
2022-08-12T10:10:30.761Z,1017.04
2022-08-12T10:11:29.496Z,1017.04
2022-08-12T10:12:31.072Z,1017.07
2022-08-12T10:13:35.069Z,1017.05
2022-08-12T10:14:34.600Z,1017.05
2022-08-12T10:16:00.828Z,1017.04
2022-08-12T10:16:35.289Z,1017.01
2022-08-12T10:17:30.449Z,1017.03
2022-08-12T10:18:29.423Z,1017.01
2022-08-12T10:19:36.292Z,1016.98
2022-08-12T10:20:30.402Z,1016.97
2022-08-12T10:21:36.468Z,1016.99
2022-08-12T10:22:38.952Z,1016.99
2022-08-12T10:23:39.619Z,1016.94
2022-08-12T10:24:30.348Z,1016.95
2022-08-12T10:26:35.789Z,1016.95
2022-08-12T10:26:36.939Z,1016.94
2022-08-12T10:28:04.052Z,1016.97
2022-08-12T10:28:30.315Z,1016.97
2022-08-12T10:30:03.909Z,1016.94
2022-08-12T10:30:40.843Z,1016.93
2022-08-12T10:32:14.122Z,1016.87
2022-08-12T10:32:42.943Z,1016.85
2022-08-12T10:33:30.911Z,1016.89
2022-08-12T10:34:29.276Z,1016.89
2022-08-12T10:35:29.245Z,1016.84
2022-08-12T10:36:36.303Z,1016.87
2022-08-12T10:38:37.757Z,1016.89
2022-08-12T10:38:38.141Z,1016.88
2022-08-12T10:40:01.358Z,1016.88
2022-08-12T10:40:32.654Z,1016.87
2022-08-12T10:41:56.900Z,1016.85
2022-08-12T10:42:30.148Z,1016.83
2022-08-12T10:43:29.161Z,1016.79
2022-08-12T10:44:30.942Z,1016.75
2022-08-12T10:45:30.464Z,1016.76
2022-08-12T10:46:30.368Z,1016.72
2022-08-12T10:48:07.304Z,1016.67
2022-08-12T10:48:34.573Z,1016.68
2022-08-12T10:50:02.537Z,1016.71
2022-08-12T10:50:56.344Z,1016.73
2022-08-12T10:52:04.330Z,1016.69
2022-08-12T10:52:34.779Z,1016.70
2022-08-12T10:53:46.093Z,1016.70
2022-08-12T10:54:30.048Z,1016.74
2022-08-12T10:55:29.005Z,1016.77
2022-08-12T10:56:34.445Z,1016.72
2022-08-12T10:58:14.096Z,1016.71
2022-08-12T10:58:31.776Z,1016.71
2022-08-12T11:00:31.981Z,1016.68
2022-08-12T11:00:45.062Z,1016.73
2022-08-12T11:04:20.597Z,1016.69
2022-08-12T11:04:25.546Z,1016.74
2022-08-12T11:04:25.806Z,1016.74
2022-08-12T11:04:39.541Z,1016.66
2022-08-12T11:07:02.852Z,1016.65
2022-08-12T11:07:08.650Z,1016.61
2022-08-12T11:08:36.294Z,1016.62
2022-08-12T11:08:38.113Z,1016.62
2022-08-12T11:09:54.379Z,1016.66
2022-08-12T11:10:29.953Z,1016.62
2022-08-12T11:12:36.137Z,1016.66
2022-08-12T11:12:55.711Z,1016.69
2022-08-12T11:13:45.768Z,1016.64
2022-08-12T11:14:49.026Z,1016.66
2022-08-12T11:16:03.341Z,1016.62
2022-08-12T11:16:29.791Z,1016.65
2022-08-12T11:17:43.692Z,1016.66
2022-08-12T11:18:29.764Z,1016.63
2022-08-12T11:19:28.760Z,1016.65
2022-08-12T11:20:30.868Z,1016.65
2022-08-12T11:21:51.432Z,1016.61
2022-08-12T11:22:29.907Z,1016.59
2022-08-12T11:23:37.525Z,1016.60
2022-08-12T11:24:30.496Z,1016.59
2022-08-12T11:25:57.381Z,1016.59
2022-08-12T11:26:29.679Z,1016.58
2022-08-12T11:27:28.700Z,1016.54
2022-08-12T11:28:33.978Z,1016.55
2022-08-12T11:30:01.441Z,1016.50
2022-08-12T11:30:30.923Z,1016.52
2022-08-12T11:31:28.650Z,1016.48
2022-08-12T11:32:29.660Z,1016.44
2022-08-12T11:34:06.191Z,1016.44
2022-08-12T11:34:53.452Z,1016.40
2022-08-12T11:35:29.680Z,1016.42
2022-08-12T11:36:28.540Z,1016.36
2022-08-12T11:37:28.540Z,1016.36
2022-08-12T11:38:28.549Z,1016.38
2022-08-12T11:40:29.509Z,1016.44
2022-08-12T11:41:32.070Z,1016.34
2022-08-12T11:42:32.236Z,1016.28
2022-08-12T11:43:30.882Z,1016.31
2022-08-12T11:44:36.905Z,1016.32
2022-08-12T11:45:29.438Z,1016.37
2022-08-12T11:46:29.452Z,1016.33
2022-08-12T11:47:28.415Z,1016.30
2022-08-12T11:48:28.435Z,1016.28
2022-08-12T11:49:31.168Z,1016.28
2022-08-12T11:50:28.420Z,1016.31
2022-08-12T11:51:28.387Z,1016.35
2022-08-12T11:52:56.799Z,1016.26
2022-08-12T11:53:59.019Z,1016.30
2022-08-12T11:54:30.011Z,1016.35
2022-08-12T11:55:29.663Z,1016.27
2022-08-12T11:56:38.773Z,1016.30
2022-08-12T11:58:01.254Z,1016.25
2022-08-12T11:59:11.337Z,1016.27
2022-08-12T12:02:01.141Z,1016.25
2022-08-12T12:02:29.354Z,1016.28
2022-08-12T12:03:45.708Z,1016.25
2022-08-12T12:04:29.702Z,1016.22
2022-08-12T12:05:28.391Z,1016.22
2022-08-12T12:06:29.226Z,1016.22
2022-08-12T12:08:36.600Z,1016.28
2022-08-12T12:08:38.288Z,1016.27
2022-08-12T12:09:29.194Z,1016.17
2022-08-12T12:10:29.219Z,1016.18